createdAt,value
2018-06-29T00:00:40.403Z,15.30
2018-06-29T00:03:10.179Z,15.30
2018-06-29T00:08:14.699Z,15.30
2018-06-29T00:11:07.363Z,15.30
2018-06-29T00:13:36.101Z,15.20
2018-06-29T00:16:08.698Z,15.20
2018-06-29T00:18:49.643Z,15.10
2018-06-29T00:21:33.403Z,15.10
2018-06-29T00:24:07.610Z,15.00
2018-06-29T00:26:41.070Z,15.00
2018-06-29T00:29:10.888Z,15.00
2018-06-29T00:31:40.679Z,15.00
2018-06-29T00:34:09.426Z,14.90
2018-06-29T00:36:39.200Z,14.90
2018-06-29T00:39:10.070Z,14.90
2018-06-29T00:41:39.810Z,14.90
2018-06-29T00:44:08.570Z,14.80
2018-06-29T00:46:53.470Z,14.90
2018-06-29T00:51:55.491Z,14.90
2018-06-29T00:54:26.237Z,14.90
2018-06-29T00:56:58.066Z,14.80
2018-06-29T00:59:26.827Z,14.80
2018-06-29T01:02:09.922Z,14.90
2018-06-29T01:04:38.898Z,14.80
2018-06-29T01:07:08.651Z,14.80
2018-06-29T01:09:55.004Z,14.80
2018-06-29T01:12:48.134Z,14.80
2018-06-29T01:15:17.019Z,14.70
2018-06-29T01:17:57.850Z,14.60
2018-06-29T01:20:38.285Z,14.60
2018-06-29T01:23:10.193Z,14.50
2018-06-29T01:25:41.046Z,14.50
2018-06-29T01:28:11.810Z,14.60
2018-06-29T01:30:40.647Z,14.60
2018-06-29T01:35:50.126Z,14.70
2018-06-29T01:38:24.558Z,14.70
2018-06-29T01:41:01.182Z,14.70
2018-06-29T01:43:29.973Z,14.60
2018-06-29T01:46:08.962Z,14.60
2018-06-29T01:48:37.713Z,14.60
2018-06-29T01:53:42.426Z,14.70
2018-06-29T01:59:05.322Z,14.70
2018-06-29T02:01:50.842Z,14.70
2018-06-29T02:04:38.858Z,14.70
2018-06-29T02:07:08.642Z,14.80
2018-06-29T02:09:49.525Z,14.70
2018-06-29T02:15:15.654Z,14.50
2018-06-29T02:17:46.501Z,14.50
2018-06-29T02:20:19.085Z,14.50
2018-06-29T02:22:57.317Z,14.60
2018-06-29T02:25:46.877Z,14.70
2018-06-29T02:28:19.389Z,14.70
2018-06-29T02:30:48.260Z,14.70
2018-06-29T02:33:35.154Z,14.70
2018-06-29T02:36:09.762Z,14.70
2018-06-29T02:38:42.545Z,14.70
2018-06-29T02:41:17.028Z,14.70
2018-06-29T02:43:50.629Z,14.70
2018-06-29T02:46:19.538Z,14.70
2018-06-29T02:48:57.890Z,14.60
2018-06-29T02:51:30.350Z,14.60
2018-06-29T02:54:08.766Z,14.50
2018-06-29T02:56:37.619Z,14.50
2018-06-29T03:01:35.835Z,14.50
2018-06-29T03:04:08.198Z,14.50
2018-06-29T03:06:41.165Z,14.50
2018-06-29T03:09:19.416Z,14.60
2018-06-29T03:11:53.066Z,14.60
2018-06-29T03:14:34.210Z,14.70
2018-06-29T03:17:03.093Z,14.70
2018-06-29T03:22:03.413Z,14.60
2018-06-29T03:24:32.301Z,14.60
2018-06-29T03:27:02.113Z,14.60
2018-06-29T03:29:31.273Z,14.60
2018-06-29T03:32:00.070Z,14.60
2018-06-29T03:34:28.867Z,14.60
2018-06-29T03:36:57.657Z,14.70
2018-06-29T03:39:26.462Z,14.70
2018-06-29T03:41:55.347Z,14.70
2018-06-29T03:44:24.109Z,14.70
2018-06-29T03:46:53.018Z,14.80
2018-06-29T03:49:21.783Z,14.80
2018-06-29T03:51:51.641Z,14.80
2018-06-29T03:54:23.473Z,14.90
2018-06-29T03:56:52.377Z,14.90
2018-06-29T03:59:22.170Z,15.00
2018-06-29T04:01:51.989Z,15.00
2018-06-29T04:04:20.777Z,15.00
2018-06-29T04:09:19.078Z,15.00
2018-06-29T04:11:47.954Z,14.90
2018-06-29T04:14:16.716Z,15.00
2018-06-29T04:16:45.526Z,15.00
2018-06-29T04:19:14.313Z,15.00
2018-06-29T04:21:43.093Z,15.00
2018-06-29T04:24:12.933Z,15.00
2018-06-29T04:26:41.796Z,15.00
2018-06-29T04:29:10.593Z,15.00
2018-06-29T04:34:08.194Z,15.30
2018-06-29T04:36:37.057Z,15.30
2018-06-29T04:39:10.633Z,15.30
2018-06-29T04:41:39.533Z,15.40
2018-06-29T04:44:08.508Z,15.50
2018-06-29T04:46:37.345Z,15.50
2018-06-29T04:51:41.141Z,15.50
2018-06-29T04:54:13.949Z,15.60
2018-06-29T04:59:23.917Z,15.70
2018-06-29T05:01:52.797Z,15.70
2018-06-29T05:04:25.262Z,15.70
2018-06-29T05:06:59.053Z,15.70
2018-06-29T05:09:27.861Z,15.60
2018-06-29T05:11:57.661Z,15.70
2018-06-29T05:14:30.752Z,15.80
2018-06-29T05:17:12.776Z,15.90
2018-06-29T05:20:00.843Z,15.90
2018-06-29T05:22:29.664Z,15.90
2018-06-29T05:25:02.253Z,16.00
2018-06-29T05:27:32.065Z,16.10
2018-06-29T05:30:00.830Z,16.10
2018-06-29T05:35:28.520Z,16.10
2018-06-29T05:38:00.804Z,16.10
2018-06-29T05:40:42.089Z,16.10
2018-06-29T05:45:45.591Z,16.20
2018-06-29T05:51:08.590Z,16.30
2018-06-29T05:53:37.460Z,16.40
2018-06-29T05:56:07.425Z,16.50
2018-06-29T05:58:39.661Z,16.40
2018-06-29T06:01:10.453Z,16.30
2018-06-29T06:03:45.221Z,16.20
2018-06-29T06:06:15.101Z,16.10
2018-06-29T06:11:37.024Z,16.20
2018-06-29T06:14:09.355Z,16.30
2018-06-29T06:16:39.145Z,16.40
2018-06-29T06:19:21.121Z,16.60
2018-06-29T06:24:44.854Z,16.90
2018-06-29T06:27:20.597Z,17.10
2018-06-29T06:29:50.409Z,17.40
2018-06-29T06:32:19.198Z,17.50
2018-06-29T06:37:23.006Z,17.50
2018-06-29T06:40:01.878Z,17.60
2018-06-29T06:42:38.601Z,17.60
2018-06-29T06:45:07.373Z,17.60
2018-06-29T06:47:46.654Z,17.60
2018-06-29T06:50:27.885Z,17.80
2018-06-29T06:55:50.798Z,18.30
2018-06-29T06:58:19.661Z,18.70
2018-06-29T07:01:04.954Z,19.10
2018-06-29T07:03:45.190Z,19.40
2018-06-29T07:06:31.502Z,19.80
2018-06-29T07:09:07.698Z,19.90
2018-06-29T07:11:54.789Z,20.10
2018-06-29T07:14:33.802Z,20.20
2018-06-29T07:17:06.078Z,20.40
2018-06-29T07:19:46.952Z,20.70
2018-06-29T07:22:27.660Z,20.50
2018-06-29T07:24:56.473Z,20.20
2018-06-29T07:27:35.395Z,20.30
2018-06-29T07:30:08.081Z,20.00
2018-06-29T07:32:38.489Z,20.10
2018-06-29T07:35:24.237Z,20.00
2018-06-29T07:37:54.880Z,19.90
2018-06-29T07:40:29.397Z,19.80
2018-06-29T07:43:06.337Z,19.50
2018-06-29T07:45:41.357Z,19.30
2018-06-29T07:48:11.206Z,19.30
2018-06-29T07:50:40.976Z,19.30
2018-06-29T07:53:24.186Z,19.40
2018-06-29T07:56:06.905Z,19.60
2018-06-29T07:58:48.257Z,19.80
2018-06-29T08:01:36.909Z,19.90
2018-06-29T08:07:01.433Z,20.40
2018-06-29T08:09:36.893Z,20.60
2018-06-29T08:12:05.820Z,20.80
2018-06-29T08:14:35.616Z,21.10
2018-06-29T08:17:04.511Z,21.60
2018-06-29T08:19:57.805Z,22.00
2018-06-29T08:22:30.397Z,22.20
2018-06-29T08:25:09.325Z,22.20
2018-06-29T08:27:38.320Z,22.40
2018-06-29T08:30:09.152Z,22.50
2018-06-29T08:32:38.252Z,22.20
2018-06-29T08:35:07.429Z,22.10
2018-06-29T08:37:38.513Z,22.60
2018-06-29T08:40:08.541Z,22.90
2018-06-29T08:42:37.837Z,22.70
2018-06-29T08:45:09.238Z,23.00
2018-06-29T08:47:38.014Z,23.30
2018-06-29T08:50:06.793Z,23.80
2018-06-29T08:52:38.641Z,24.50
2018-06-29T08:55:08.473Z,24.60
2018-06-29T08:57:41.225Z,24.50
2018-06-29T09:00:22.792Z,24.30
2018-06-29T09:03:03.829Z,24.30
2018-06-29T09:05:34.593Z,24.30
2018-06-29T09:08:04.349Z,24.50
2018-06-29T09:10:42.864Z,24.80
2018-06-29T09:13:22.716Z,25.20
2018-06-29T09:15:59.209Z,25.30
2018-06-29T09:18:51.120Z,25.60
2018-06-29T09:27:07.309Z,25.80
2018-06-29T09:29:47.288Z,26.80
2018-06-29T09:32:23.733Z,26.30
2018-06-29T09:34:59.225Z,25.90
2018-06-29T09:37:30.019Z,25.70
2018-06-29T09:40:05.765Z,25.80
2018-06-29T09:42:34.510Z,26.00
2018-06-29T09:45:06.646Z,25.90
2018-06-29T09:47:35.505Z,25.90
2018-06-29T09:50:13.301Z,25.90
2018-06-29T09:52:42.029Z,25.30
2018-06-29T09:55:15.141Z,25.10
2018-06-29T09:57:47.981Z,24.90
2018-06-29T10:00:20.969Z,25.50
2018-06-29T10:02:50.697Z,25.70
2018-06-29T10:05:19.445Z,26.20
2018-06-29T10:07:51.413Z,27.50
2018-06-29T10:10:21.213Z,29.70
2018-06-29T10:12:53.495Z,31.10
2018-06-29T10:15:25.441Z,32.20
2018-06-29T10:18:04.776Z,34.10
2018-06-29T10:20:39.937Z,34.50
2018-06-29T10:23:11.868Z,35.40
2018-06-29T10:25:41.705Z,35.80
2018-06-29T10:28:16.533Z,35.90
2018-06-29T10:30:49.101Z,36.10
2018-06-29T10:39:09.884Z,35.00
2018-06-29T10:41:38.653Z,35.30
2018-06-29T10:44:09.449Z,35.20
2018-06-29T10:46:45.025Z,33.90
2018-06-29T10:49:13.764Z,34.00
2018-06-29T10:51:48.533Z,34.80
2018-06-29T10:56:56.169Z,33.70
2018-06-29T10:59:24.877Z,33.80
2018-06-29T11:01:55.717Z,33.10
2018-06-29T11:04:30.873Z,34.40
2018-06-29T11:07:09.753Z,34.50
2018-06-29T11:09:45.196Z,34.30
2018-06-29T11:12:14.997Z,34.70
2018-06-29T11:14:43.853Z,35.50
2018-06-29T11:17:32.385Z,35.60
2018-06-29T11:20:07.854Z,36.20
2018-06-29T11:22:36.739Z,37.20
2018-06-29T11:25:05.552Z,37.00
2018-06-29T11:27:34.313Z,38.00
2018-06-29T11:30:05.265Z,39.00
2018-06-29T11:35:08.589Z,35.50
2018-06-29T11:37:38.381Z,33.60
2018-06-29T11:40:14.199Z,31.40
2018-06-29T11:42:46.704Z,30.60
2018-06-29T11:45:21.348Z,29.70
2018-06-29T11:47:50.096Z,29.90
2018-06-29T11:50:35.764Z,30.20
2018-06-29T11:53:05.608Z,30.80
2018-06-29T11:55:35.365Z,31.70
2018-06-29T11:58:05.096Z,32.00
2018-06-29T12:00:35.008Z,33.00
2018-06-29T12:03:05.064Z,34.40
2018-06-29T12:05:33.857Z,34.60
2018-06-29T12:08:02.661Z,34.10
2018-06-29T12:10:31.544Z,33.40
2018-06-29T12:15:41.820Z,33.70
2018-06-29T12:18:11.584Z,35.50
2018-06-29T12:20:42.365Z,35.20
2018-06-29T12:23:14.819Z,33.30
2018-06-29T12:25:49.548Z,32.20
2018-06-29T12:28:18.317Z,30.90
2018-06-29T12:30:50.217Z,29.10
2018-06-29T12:33:22.128Z,28.50
2018-06-29T12:35:50.973Z,28.40
2018-06-29T12:38:36.616Z,28.30
2018-06-29T12:41:05.432Z,28.00
2018-06-29T12:43:35.246Z,28.10
2018-06-29T12:46:05.067Z,27.60
2018-06-29T12:51:30.458Z,27.40
2018-06-29T12:54:05.237Z,27.80
2018-06-29T12:56:41.629Z,28.10
2018-06-29T12:59:11.468Z,28.30
2018-06-29T13:01:45.584Z,28.70
2018-06-29T13:04:18.464Z,29.10
2018-06-29T13:06:51.500Z,28.80
2018-06-29T13:09:33.193Z,29.20
2018-06-29T13:12:05.060Z,30.00
2018-06-29T13:14:33.885Z,30.10
2018-06-29T13:17:16.884Z,29.90
2018-06-29T13:19:54.009Z,30.00
2018-06-29T13:22:24.828Z,30.30
2018-06-29T13:24:53.673Z,31.10
2018-06-29T13:27:25.488Z,32.30
2018-06-29T13:30:03.708Z,32.60
2018-06-29T13:32:33.464Z,33.40
2018-06-29T13:35:04.532Z,33.50
2018-06-29T13:37:40.703Z,35.20
2018-06-29T13:40:22.447Z,35.70
2018-06-29T13:42:56.331Z,37.80
2018-06-29T13:45:25.188Z,39.80
2018-06-29T13:47:59.420Z,40.80
2018-06-29T13:53:00.468Z,41.80
2018-06-29T13:55:31.360Z,42.60
2018-06-29T13:58:05.904Z,42.50
2018-06-29T14:00:38.297Z,41.70
2018-06-29T14:05:39.651Z,42.80
2018-06-29T14:08:12.516Z,41.20
2018-06-29T14:10:41.780Z,39.40
2018-06-29T14:13:12.563Z,38.10
2018-06-29T14:15:42.315Z,37.60
2018-06-29T14:18:11.180Z,37.90
2018-06-29T14:20:39.987Z,38.10
2018-06-29T14:23:15.303Z,36.70
2018-06-29T14:25:48.695Z,36.20
2018-06-29T14:28:17.591Z,38.00
2018-06-29T14:33:31.687Z,39.70
2018-06-29T14:36:06.443Z,41.50
2018-06-29T14:38:35.191Z,42.00
2018-06-29T14:41:04.988Z,38.50
2018-06-29T14:43:39.303Z,35.60
2018-06-29T14:46:17.872Z,34.80
2018-06-29T14:51:43.539Z,33.20
2018-06-29T14:54:13.335Z,31.80
2018-06-29T14:56:45.195Z,31.20
2018-06-29T14:59:18.875Z,30.60
2018-06-29T15:01:47.627Z,30.10
2018-06-29T15:04:16.583Z,30.10
2018-06-29T15:06:49.311Z,30.10
2018-06-29T15:09:23.527Z,31.50
2018-06-29T15:11:56.180Z,33.70
2018-06-29T15:14:31.547Z,35.50
2018-06-29T15:17:10.488Z,37.00
2018-06-29T15:19:39.328Z,38.90
2018-06-29T15:22:10.049Z,40.50
2018-06-29T15:25:03.547Z,40.60
2018-06-29T15:27:34.631Z,38.70
2018-06-29T15:30:04.774Z,37.20
2018-06-29T15:32:43.431Z,35.80
2018-06-29T15:35:19.188Z,35.30
2018-06-29T15:37:48.939Z,34.90
2018-06-29T15:42:55.723Z,34.50
2018-06-29T15:45:24.530Z,34.30
2018-06-29T15:47:53.334Z,35.00
2018-06-29T15:50:22.108Z,35.90
2018-06-29T15:52:58.699Z,36.10
2018-06-29T15:58:09.103Z,37.80
2018-06-29T16:00:47.504Z,38.00
2018-06-29T16:03:16.335Z,37.20
2018-06-29T16:05:50.567Z,37.40
2018-06-29T16:08:20.291Z,36.80
2018-06-29T16:10:51.040Z,35.90
2018-06-29T16:13:23.398Z,34.30
2018-06-29T16:15:54.176Z,33.20
2018-06-29T16:18:23.928Z,32.60
2018-06-29T16:20:58.012Z,32.10
2018-06-29T16:23:28.008Z,31.90
2018-06-29T16:26:00.780Z,32.70
2018-06-29T16:28:37.044Z,33.20
2018-06-29T16:31:05.931Z,33.70
2018-06-29T16:33:41.876Z,32.80
2018-06-29T16:36:29.219Z,32.60
2018-06-29T16:39:06.104Z,33.20
2018-06-29T16:41:51.985Z,33.10
2018-06-29T16:44:25.859Z,32.10
2018-06-29T16:46:57.943Z,30.90
2018-06-29T16:49:27.815Z,30.10
2018-06-29T16:51:58.684Z,29.20
2018-06-29T16:54:29.771Z,28.50
2018-06-29T16:57:04.319Z,28.10
2018-06-29T16:59:38.663Z,28.00
2018-06-29T17:02:11.111Z,27.80
2018-06-29T17:04:40.919Z,27.60
2018-06-29T17:07:12.999Z,27.60
2018-06-29T17:09:46.668Z,27.80
2018-06-29T17:12:33.451Z,28.00
2018-06-29T17:15:05.723Z,27.90
2018-06-29T17:17:40.627Z,27.70
2018-06-29T17:20:10.387Z,27.40
2018-06-29T17:22:39.253Z,27.40
2018-06-29T17:25:22.791Z,27.30
2018-06-29T17:27:56.523Z,27.10
2018-06-29T17:30:34.347Z,26.80
2018-06-29T17:33:04.083Z,26.60
2018-06-29T17:35:32.919Z,26.60
2018-06-29T17:38:02.662Z,26.50
2018-06-29T17:40:43.536Z,26.30
2018-06-29T17:43:12.235Z,26.00
2018-06-29T17:45:52.154Z,25.80
2018-06-29T17:48:20.952Z,25.60
2018-06-29T17:50:53.455Z,25.50
2018-06-29T17:53:22.287Z,25.90
2018-06-29T17:55:51.095Z,26.60
2018-06-29T17:58:19.869Z,27.20
2018-06-29T18:00:48.643Z,27.60
2018-06-29T18:03:17.515Z,27.90
2018-06-29T18:05:46.336Z,28.10
2018-06-29T18:08:20.891Z,28.30
2018-06-29T18:10:56.180Z,28.10
2018-06-29T18:13:25.016Z,28.10
2018-06-29T18:15:55.839Z,27.70
2018-06-29T18:18:26.663Z,27.20
2018-06-29T18:21:01.947Z,26.70
2018-06-29T18:23:30.801Z,26.30
2018-06-29T18:26:01.691Z,26.00
2018-06-29T18:28:32.443Z,25.70
2018-06-29T18:31:03.199Z,25.50
2018-06-29T18:33:33.927Z,25.30
2018-06-29T18:36:03.655Z,25.10
2018-06-29T18:38:36.767Z,25.00
2018-06-29T18:41:11.975Z,24.90
2018-06-29T18:43:45.311Z,24.70
2018-06-29T18:46:17.227Z,24.60
2018-06-29T18:48:58.071Z,24.40
2018-06-29T18:51:26.875Z,24.20
2018-06-29T18:54:03.959Z,24.10
2018-06-29T18:56:36.251Z,24.00
2018-06-29T18:59:23.122Z,23.80
2018-06-29T19:01:52.859Z,23.70
2018-06-29T19:04:22.607Z,23.60
2018-06-29T19:06:51.499Z,23.40
2018-06-29T19:09:26.943Z,23.30
2018-06-29T19:11:56.723Z,23.10
2018-06-29T19:14:29.383Z,22.90
2018-06-29T19:17:01.360Z,22.70
2018-06-29T19:19:30.114Z,22.50
2018-06-29T19:21:59.884Z,22.40
2018-06-29T19:24:36.202Z,22.20
2018-06-29T19:27:08.415Z,22.10
2018-06-29T19:29:40.990Z,21.90
2018-06-29T19:34:43.328Z,21.80
2018-06-29T19:37:12.082Z,21.60
2018-06-29T19:39:40.998Z,21.40
2018-06-29T19:42:09.882Z,21.20
2018-06-29T19:44:38.738Z,21.00
2018-06-29T19:52:12.548Z,20.50
2018-06-29T19:54:42.298Z,20.40
2018-06-29T19:57:13.039Z,20.30
2018-06-29T20:00:02.607Z,20.10
2018-06-29T20:02:41.231Z,20.00
2018-06-29T20:05:23.403Z,19.90
2018-06-29T20:07:57.639Z,19.70
2018-06-29T20:10:28.338Z,19.60
2018-06-29T20:12:57.158Z,19.50
2018-06-29T20:15:25.915Z,19.40
2018-06-29T20:17:55.666Z,19.30
2018-06-29T20:20:35.954Z,19.30
2018-06-29T20:23:05.742Z,19.20
2018-06-29T20:25:34.595Z,19.20
2018-06-29T20:28:03.386Z,19.30
2018-06-29T20:30:32.114Z,19.30
2018-06-29T20:33:02.964Z,19.30
2018-06-29T20:35:32.659Z,19.20
2018-06-29T20:38:01.411Z,19.30
2018-06-29T20:40:31.170Z,19.30
2018-06-29T20:43:02.959Z,19.30
2018-06-29T20:45:32.874Z,19.30
2018-06-29T20:48:01.634Z,19.30
2018-06-29T20:50:36.926Z,19.40
2018-06-29T20:53:07.173Z,19.30
2018-06-29T20:55:49.210Z,19.30
2018-06-29T20:58:27.498Z,19.30
2018-06-29T21:01:02.062Z,19.10
2018-06-29T21:03:34.042Z,18.90
2018-06-29T21:06:03.003Z,18.80
2018-06-29T21:08:31.754Z,18.60
2018-06-29T21:11:02.534Z,18.60
2018-06-29T21:13:35.059Z,18.40
2018-06-29T21:16:03.878Z,18.30
2018-06-29T21:18:38.570Z,18.30
2018-06-29T21:21:07.571Z,18.30
2018-06-29T21:23:36.354Z,18.20
2018-06-29T21:26:05.188Z,18.00
2018-06-29T21:28:39.840Z,17.90
2018-06-29T21:31:12.846Z,17.70
2018-06-29T21:33:41.674Z,17.50
2018-06-29T21:36:16.963Z,17.40
2018-06-29T21:38:45.834Z,17.20
2018-06-29T21:43:44.214Z,17.10
2018-06-29T21:46:14.026Z,17.10
2018-06-29T21:48:45.958Z,17.10
2018-06-29T21:51:16.722Z,17.00
2018-06-29T21:53:50.570Z,16.90
2018-06-29T21:56:32.462Z,16.90
2018-06-29T22:01:37.458Z,16.70
2018-06-29T22:04:06.286Z,16.70
2018-06-29T22:06:35.194Z,16.50
2018-06-29T22:09:05.650Z,16.40
2018-06-29T22:11:34.474Z,16.40
2018-06-29T22:14:04.290Z,16.30
2018-06-29T22:19:02.570Z,16.30
2018-06-29T22:21:33.538Z,16.30
2018-06-29T22:24:02.310Z,16.20
2018-06-29T22:26:32.131Z,16.20
2018-06-29T22:29:01.978Z,16.20
2018-06-29T22:31:31.790Z,16.10
2018-06-29T22:34:02.619Z,16.10
2018-06-29T22:36:34.678Z,16.00
2018-06-29T22:39:04.362Z,15.90
2018-06-29T22:41:33.222Z,15.80
2018-06-29T22:44:02.023Z,15.80
2018-06-29T22:46:30.798Z,15.70
2018-06-29T22:49:00.582Z,15.80
2018-06-29T22:51:33.562Z,15.70
2018-06-29T22:54:02.430Z,15.70
2018-06-29T22:56:33.230Z,15.70
2018-06-29T23:01:39.571Z,15.50
2018-06-29T23:04:14.619Z,15.40
2018-06-29T23:07:00.699Z,15.30
2018-06-29T23:09:32.579Z,15.20
2018-06-29T23:12:04.518Z,15.10
2018-06-29T23:14:39.618Z,15.00
2018-06-29T23:17:12.799Z,15.00
2018-06-29T23:19:55.762Z,15.00
2018-06-29T23:22:26.599Z,15.00
2018-06-29T23:27:28.442Z,14.80
2018-06-29T23:29:57.318Z,14.80
2018-06-29T23:32:28.254Z,14.80
2018-06-29T23:35:00.997Z,14.80
2018-06-29T23:37:33.966Z,14.80
2018-06-29T23:40:08.902Z,14.80
2018-06-29T23:42:42.694Z,14.70
2018-06-29T23:45:12.586Z,14.70
2018-06-29T23:47:47.314Z,14.60
2018-06-29T23:53:13.954Z,14.60
2018-06-29T23:55:42.866Z,14.50
2018-06-29T23:58:13.693Z,14.40
